x

Southeast Of Ponce, Pr (42085) Wave Buoy

12:00am - Wed 28th Jun 2017 All times are AST. -4 hours from GMT.

  • Sig Wave height 3.3ft
  • Swell Direction
  • Peak Period 7s
  • Wind
    11mph, 13mph gusts
  • Sea Temp 84°f
  • Air Temp 84°f
  • Sea Pressure 1015.6mb
  • Southeast Of Ponce, Pr
  • Southeast Of Ponce, Pr

More Historic Weather Station data

Upgrade to MSW Pro to gain access to the past 30 days of data for over 8000 Wavebouys and Weather Stations around the globe.

Join Pro

Comparision Forecast

View Surf forecast
   
Wed 06/28 12:00am 3.5ft 7s 11 13 mph 1015.6mb 84f 84f
Tue 06/27 11:50pm  -   -  11 13 mph 1015.7mb - 84f
11:40pm  -   -  11 16 mph 1015.7mb - 84f
11:30pm  -   -  11 13 mph 1015.7mb - 84f
11:20pm  -   -  11 13 mph 1015.7mb - 84f
11:10pm  -   -  11 13 mph 1015.7mb - 85f
11:00pm 3ft 5s 13 16 mph 1015.7mb 84f 85f
10:00pm 3.5ft 5s 16 18 mph 1015.3mb 84f 85f
9:30pm  -   -  18 20 mph 1015mb - 85f
9:20pm  -   -  16 20 mph 1015mb - 85f
9:10pm 4ft  -  18 22 mph 1014.8mb - 85f
9:00pm 4ft 5s 20 25 mph 1014.5mb 84f 85f
8:50pm  -   -  20 25 mph 1014.5mb - 85f
8:40pm  -   -  20 22 mph 1014.6mb - 85f
8:30pm  -   -  20 25 mph 1014.4mb - 85f
8:20pm  -   -  20 22 mph 1014.4mb - 85f
8:10pm 4ft  -  20 22 mph 1014.2mb - 85f
8:00pm 4ft 4s 20 25 mph 1014.2mb 84f 85f
7:30pm  -   -  20 25 mph 1014mb - 85f
7:20pm  -   -  20 25 mph 1014mb - 85f
7:00pm  -   -   -  mph - 84f -
6:30pm  -   -  20 25 mph 1013.5mb - 85f
6:20pm  -   -  20 25 mph 1013.4mb - 85f
6:10pm  -   -  20 25 mph 1013.3mb - 85f
6:00pm  -   -  20 25 mph 1013.3mb 84f 85f
5:30pm  -   -  20 25 mph 1013.2mb - 85f
5:20pm  -   -  20 25 mph 1013.2mb - 85f
5:10pm 4.5ft  -  20 25 mph 1013.1mb - 85f
5:00pm 4.5ft 5s 20 27 mph 1013mb 84f 85f
4:30pm  -   -  22 27 mph 1013.1mb - 85f
4:20pm  -   -  20 25 mph 1013.2mb - 85f
4:10pm 4.5ft  -  22 27 mph 1013.2mb - 85f
4:00pm 4.5ft 4s 22 29 mph 1013.3mb 84f 85f
3:30pm  -   -  22 25 mph 1013.6mb - 85f
3:20pm  -   -  22 25 mph 1013.6mb - 85f
3:10pm 4ft  -  22 25 mph 1013.8mb - 85f
3:00pm 4ft 6s 22 27 mph 1013.9mb 84f 85f
2:30pm  -   -  20 25 mph 1014.2mb - 85f
2:20pm  -   -  20 25 mph 1014.3mb - 85f
2:10pm  -   -  20 25 mph 1014.5mb - 85f
2:00pm  -   -  20 25 mph 1014.6mb 84f 85f
1:30pm  -   -  18 22 mph 1014.8mb - 85f
1:20pm  -   -  18 22 mph 1014.9mb - 85f
1:10pm 4ft  -  18 22 mph 1015mb - 85f
1:00pm 4ft 5s 18 22 mph 1015.2mb 84f 85f
12:30pm  -   -  18 22 mph 1015.5mb - 85f
12:20pm  -   -  16 20 mph 1015.6mb - 85f
12:10pm 3.5ft  -  16 20 mph 1015.7mb - 85f
12:00pm 3.5ft 7s 16 20 mph 1015.7mb 84f 85f
11:00am 3.5ft 7s 16 20 mph 1016mb 84f 85f
10:30am  -   -  16 18 mph 1016.1mb - 85f
10:20am  -   -  18 20 mph 1016.1mb - 85f
10:10am 3.5ft  -  16 20 mph 1016.1mb - 85f
10:00am 3.5ft 7s 16 18 mph 1016.3mb 84f 85f
9:30am  -   -  16 18 mph 1016.2mb - 85f
9:20am  -   -  13 18 mph 1016.2mb - 85f
9:10am 3.5ft  -  13 18 mph 1016.2mb - 85f
9:00am 3.5ft 7s 11 13 mph 1016.3mb 84f 84f
8:30am  -   -  11 13 mph 1016.1mb - 84f
8:20am  -   -  11 13 mph 1016.1mb - 84f
8:10am 3.5ft  -  11 16 mph 1016.1mb - 84f
8:00am 3.5ft 7s 13 16 mph 1016mb 84f 84f
7:30am  -   -  13 16 mph 1016mb - 84f
7:20am  -   -  13 16 mph 1016mb - 84f
7:10am  -   -  11 18 mph 1016mb - 83f
7:00am  -   -  11 16 mph 1015.9mb 84f 84f
6:30am  -   -  9 11 mph 1015.7mb - 83f
6:20am  -   -  9 13 mph 1015.7mb - 83f
6:10am 3.5ft  -  11 13 mph 1015.7mb - 83f
6:00am 3.5ft 7s 11 13 mph 1015.6mb 84f 83f
5:30am  -   -  11 13 mph 1015.4mb - 83f
5:20am  -   -  9 11 mph 1015.4mb - 83f
5:10am 3.5ft  -  11 16 mph 1015.4mb - 83f
5:00am 3.5ft 7s 11 13 mph 1015.4mb 84f 83f
4:30am  -   -  11 11 mph 1015.3mb - 83f
4:20am  -   -  11 13 mph 1015.3mb - 83f
4:10am 3.5ft  -  11 13 mph 1015.3mb - 83f
4:00am 3.5ft 7s 11 13 mph 1015.2mb 83f 83f
3:30am  -   -  11 13 mph 1015.3mb - 83f
3:20am  -   -  11 13 mph 1015.2mb - 83f
3:10am 4ft  -  11 13 mph 1015.2mb - 83f
3:00am 4ft 7s 9 11 mph 1015.1mb 84f 83f
2:00am 4ft 7s 9 11 mph 1015.4mb 84f 83f
1:30am  -   -  7 9 mph 1015.5mb - 83f
1:20am  -   -  9 11 mph 1015.4mb - 84f
1:10am 4ft  -  9 9 mph 1015.5mb - 84f
1:00am 4ft 6s 9 11 mph 1015.5mb 84f 84f
12:50am  -   -  9 11 mph 1015.5mb - 84f
12:30am  -   -  13 18 mph 1015.7mb - 84f
12:20am  -   -  13 16 mph 1015.7mb - 84f
12:10am  -   -  13 16 mph 1015.8mb - 84f
12:00am  -   -  13 16 mph 1015.8mb 84f 84f
Mon 06/26 11:50pm  -   -  13 18 mph 1016mb - 84f
11:30pm  -   -  16 20 mph 1016.1mb - 84f
11:20pm  -   -  16 20 mph 1016.1mb - 84f
11:10pm 4ft  -  16 20 mph 1016.1mb - 85f
11:00pm 4ft 6s 16 20 mph 1016.2mb 84f 85f
10:50pm  -   -  16 20 mph 1016.1mb - 85f
10:30pm  -   -  16 20 mph 1016.1mb - 85f
10:20pm  -   -  18 22 mph 1015.9mb - 85f
10:10pm 4.5ft  -  20 22 mph 1015.7mb - 85f
10:00pm 4.5ft 7s 18 22 mph 1015.7mb 84f 85f
9:50pm  -   -  16 20 mph 1015.5mb - 85f
9:30pm  -   -  16 18 mph 1015.3mb - 85f
9:20pm  -   -  16 18 mph 1015.2mb - 85f
9:00pm  -   -   -  mph - 84f -
8:30pm  -   -  16 18 mph 1015.1mb - 85f
8:20pm  -   -  18 20 mph 1014.9mb - 85f
8:00pm  -   -  18 20 mph 1014.7mb 84f 85f
7:30pm  -   -  18 22 mph 1014.6mb - 85f
7:20pm  -   -  18 22 mph 1014.6mb - 85f
7:10pm  -   -  20 22 mph 1014.4mb - 85f
7:00pm  -   -  20 25 mph 1014.2mb 84f 85f
6:50pm  -   -  20 25 mph 1014mb - 85f
6:30pm  -   -  20 27 mph 1014mb - 85f
6:20pm  -   -  20 25 mph 1013.9mb - 85f
6:10pm 5ft  -  22 25 mph 1013.9mb - 85f
6:00pm 5ft 6s 20 25 mph 1013.9mb 84f 85f
5:50pm  -   -  20 25 mph 1013.9mb - 85f
5:30pm  -   -  20 25 mph 1013.8mb - 85f
5:20pm  -   -  20 25 mph 1013.8mb - 85f
5:10pm 4.5ft  -  20 25 mph 1013.7mb - 85f
5:00pm 4.5ft 6s 20 25 mph 1013.7mb 84f 85f
4:50pm  -   -  22 27 mph 1013.7mb - 85f
4:00pm  -   -  20 25 mph 1013.7mb 84f 85f
3:50pm  -   -  20 25 mph 1013.9mb - 85f
3:30pm  -   -  20 25 mph 1014.1mb - 85f
3:20pm  -   -  18 22 mph 1014.2mb - 85f
3:10pm 5ft  -  20 25 mph 1014.2mb - 85f
3:00pm 5ft 7s 20 25 mph 1014.3mb 84f 85f
2:50pm  -   -  20 27 mph 1014.3mb - 85f
2:30pm  -   -  22 27 mph 1014.6mb - 85f
2:20pm  -   -  20 27 mph 1014.7mb - 85f
2:10pm  -   -  20 22 mph 1014.8mb - 85f
2:00pm  -   -  20 25 mph 1015mb 84f 85f
1:50pm  -   -  20 25 mph 1015.1mb - 85f
1:30pm  -   -  20 25 mph 1015.5mb - 85f
1:20pm  -   -  20 25 mph 1015.5mb - 85f
1:00pm  -   -   -  mph - 84f -
12:30pm  -   -  20 27 mph 1015.9mb - 85f
12:20pm  -   -  20 25 mph 1015.9mb - 85f
12:10pm 5ft  -  20 25 mph 1016.1mb - 85f
12:00pm 5ft 7s 25 27 mph 1016mb 84f 85f
11:50am  -   -  22 27 mph 1016mb - 85f
11:30am  -   -  22 27 mph 1016.1mb - 85f
11:20am  -   -  22 29 mph 1016mb - 85f
11:10am 5ft  -  22 27 mph 1016mb - 85f
11:00am 5ft 7s 22 27 mph 1016.1mb 84f 85f
10:50am  -   -  20 25 mph 1016.1mb - 85f
10:30am  -   -  20 25 mph 1016.1mb - 85f
10:20am  -   -  20 25 mph 1016.1mb - 85f
10:10am 4.5ft  -  20 25 mph 1016.1mb - 85f
10:00am 4.5ft 7s 22 27 mph 1016mb 84f 85f
9:50am  -   -  20 25 mph 1016mb - 85f
9:30am  -   -  22 27 mph 1016.1mb - 85f
9:20am  -   -  18 25 mph 1016.1mb - 85f
9:10am 4ft  -  20 22 mph 1016.1mb - 85f
9:00am 4ft 6s 20 25 mph 1016.1mb 83f 85f
8:50am  -   -  20 25 mph 1016mb - 85f
8:00am 4ft 7s 18 20 mph 1016mb 83f 84f
7:50am  -   -  18 20 mph 1015.9mb - 84f
7:30am  -   -  16 20 mph 1015.9mb - 84f
7:20am  -   -  18 22 mph 1015.8mb - 84f
7:10am 4ft  -  18 20 mph 1015.7mb - 84f
7:00am 4ft 7s 16 22 mph 1015.7mb 83f 84f
6:50am  -   -  18 22 mph 1015.6mb - 84f
6:30am  -   -  18 22 mph 1015.5mb - 84f
6:20am  -   -  18 22 mph 1015.4mb - 84f
6:10am 4ft  -  18 22 mph 1015.2mb - 83f
6:00am 4ft 7s 16 18 mph 1015.2mb 83f 83f
5:50am  -   -  13 18 mph 1015.2mb - 83f
5:00am  -   -  16 20 mph 1015.2mb 83f 83f
4:50am  -   -  13 18 mph 1015.2mb - 83f
4:30am  -   -  18 20 mph 1015.3mb - 83f
4:20am  -   -  18 22 mph 1015.3mb - 83f
4:10am 4.5ft  -  18 22 mph 1015.2mb - 83f
4:00am 4.5ft 7s 16 20 mph 1015.2mb 83f 83f
3:50am  -   -  16 20 mph 1015.2mb - 83f
3:30am  -   -  18 22 mph 1015.2mb - 83f
3:20am  -   -  18 22 mph 1015.2mb - 83f
3:00am  -   -  18 20 mph 1015.4mb 83f 82f
2:30am  -   -  13 16 mph 1015.7mb - 82f
2:20am  -   -  13 16 mph 1015.8mb - 82f
2:10am 4.5ft  -  13 16 mph 1015.8mb - 82f
2:00am 4.5ft 7s 13 16 mph 1016mb 83f 82f
1:50am  -   -  13 16 mph 1016.2mb - 81f
1:30am  -   -  13 18 mph 1016.3mb - 81f
1:20am  -   -  13 16 mph 1016.6mb - 81f
1:10am 5.5ft  -  13 16 mph 1016.7mb - 80f
1:00am 5.5ft 7s 13 16 mph 1016.9mb 84f 80f
12:50am  -   -  11 16 mph 1017mb - 81f
12:00am 5ft 7s 18 22 mph 1017.3mb 84f 81f
Sun 06/25 11:50pm  -   -  18 22 mph 1017.2mb - 81f
11:30pm  -   -  16 20 mph 1017.6mb - 80f
11:20pm  -   -  18 20 mph 1017.7mb - 80f
11:10pm  -   -  18 20 mph 1017.9mb - 80f
11:00pm  -   -  18 22 mph 1018.1mb 84f 80f
10:50pm  -   -  18 20 mph 1018.2mb - 79f
10:30pm  -   -  18 22 mph 1018.1mb - 78f
10:20pm  -   -  18 22 mph 1018.1mb - 78f
10:10pm 5ft  -  20 27 mph 1018mb - 79f
10:00pm 5ft 6s 22 25 mph 1017.8mb 84f 79f
9:50pm  -   -  22 29 mph 1017.8mb - 79f
9:00pm  -   -  25 29 mph 1017.3mb 84f 81f
8:50pm  -   -  25 29 mph 1017.5mb - 80f
8:30pm  -   -  29 36 mph 1017.1mb - 80f
8:20pm  -   -  27 36 mph 1017.1mb - 81f
8:00pm  -   -  22 27 mph 1016.6mb 84f 85f
7:00pm  -   -  22 27 mph 1016.1mb 84f 85f
6:50pm  -   -  20 25 mph 1016mb - 85f
6:00pm  -   -   -  mph - 84f -
5:50pm  -   -  22 27 mph 1014.9mb - 85f
5:30pm  -   -  22 27 mph 1014.7mb - 85f
5:20pm  -   -  22 29 mph 1014.8mb - 85f
5:10pm  -   -  22 25 mph 1014.9mb - 85f
5:00pm  -   -  20 25 mph 1015.1mb 84f 85f
4:50pm  -   -  20 27 mph 1015mb - 85f
4:30pm  -   -  18 22 mph 1015.4mb - 85f
4:20pm  -   -  20 25 mph 1015.3mb - 85f
4:10pm  -   -  22 27 mph 1015.4mb - 85f
4:00pm  -   -  20 25 mph 1015.4mb 84f 85f
3:50pm  -   -  20 25 mph 1015.4mb - 85f
3:00pm 4.5ft 7s 20 25 mph 1015.8mb 84f 85f
2:50pm  -   -  20 25 mph 1015.9mb - 85f
2:30pm  -   -  20 25 mph 1016.1mb - 85f
2:20pm  -   -  22 25 mph 1016.1mb - 85f
2:10pm 4.5ft  -  22 27 mph 1016.2mb - 85f
2:00pm 4.5ft 7s 22 27 mph 1016.3mb 84f 85f
1:50pm  -   -  20 25 mph 1016.5mb - 85f
1:30pm  -   -  20 25 mph 1016.7mb - 85f
1:20pm  -   -  22 27 mph 1016.8mb - 85f
1:10pm  -   -  22 25 mph 1016.9mb - 85f
1:00pm  -   -  22 27 mph 1017mb 84f 85f
12:50pm  -   -  22 27 mph 1017mb - 85f
12:30pm  -   -  20 25 mph 1017.2mb - 85f
12:20pm  -   -  20 25 mph 1017.2mb - 85f
12:10pm 4.5ft  -  22 27 mph 1017.3mb - 85f
12:00pm 4.5ft 5s 22 27 mph 1017.3mb 84f 85f
11:50am  -   -  20 27 mph 1017.3mb - 85f
11:30am  -   -  20 25 mph 1017.3mb - 85f
11:20am  -   -  20 25 mph 1017.3mb - 85f
11:10am 4ft  -  20 25 mph 1017.3mb - 85f
11:00am 4ft 6s 20 25 mph 1017.3mb 84f 85f
10:50am  -   -  18 22 mph 1017.3mb - 84f
10:30am  -   -  18 20 mph 1017.2mb - 84f
10:20am  -   -  18 22 mph 1017mb - 84f
10:10am 4ft  -  18 22 mph 1017mb - 85f
10:00am 4ft 6s 18 22 mph 1017mb 84f 85f
9:50am  -   -  16 20 mph 1017mb - 84f
9:30am  -   -  16 20 mph 1017mb - 85f
9:20am  -   -  18 20 mph 1016.9mb - 85f
9:10am 4ft  -  18 22 mph 1016.7mb - 85f
9:00am 4ft 6s 18 22 mph 1016.7mb 83f 85f
8:50am  -   -  18 22 mph 1016.6mb - 85f
8:30am  -   -  18 22 mph 1016.7mb - 85f
8:20am  -   -  18 22 mph 1016.7mb - 85f
8:10am 3.5ft  -  18 22 mph 1016.6mb - 84f
8:00am 3.5ft 6s 18 22 mph 1016.5mb 83f 84f
7:30am  -   -  18 22 mph 1016.6mb - 84f
7:20am  -   -  20 25 mph 1016.6mb - 84f
7:10am 3.5ft  -  18 20 mph 1016.5mb - 84f
7:00am 3.5ft 6s 20 22 mph 1016.4mb 83f 84f
6:30am  -   -  20 25 mph 1016.1mb - 84f
6:20am  -   -  18 22 mph 1016.1mb - 84f
6:10am 3.5ft  -  20 22 mph 1016.1mb - 84f
6:00am 3.5ft 6s 18 22 mph 1015.9mb 83f 84f
5:00am 3.5ft 6s 16 18 mph 1015.5mb 83f 83f
4:50am  -   -  16 18 mph 1015.7mb - 83f
4:30am  -   -  16 20 mph 1015.5mb - 83f
4:20am  -   -  16 20 mph 1015.6mb - 83f
4:10am 3ft  -  16 18 mph 1015.7mb - 83f
4:00am 3ft 5s 16 20 mph 1015.8mb 83f 83f
3:50am  -   -  13 16 mph 1015.8mb - 83f
3:00am 3ft 6s 13 18 mph 1016.2mb 84f 83f
2:50am  -   -  16 18 mph 1016.2mb - 83f
2:00am 3ft 6s 13 16 mph 1016.4mb 84f 83f
1:50am  -   -  13 16 mph 1016.5mb - 83f
1:30am  -   -  16 18 mph 1016.7mb - 83f
1:20am  -   -  16 20 mph 1016.7mb - 83f
1:10am 3.5ft  -  18 22 mph 1016.7mb - 83f
1:00am 3.5ft 6s 16 20 mph 1016.8mb 84f 83f
12:50am  -   -  16 20 mph 1016.9mb - 83f
12:00am 3ft 6s 13 18 mph 1017.4mb 84f 83f
Sat 06/24 11:50pm  -   -  13 16 mph 1017.5mb - 83f
11:30pm  -   -  16 20 mph 1017.4mb - 83f
11:20pm  -   -  13 18 mph 1017.4mb - 83f
11:10pm  -   -  16 20 mph 1017.3mb - 83f
11:00pm  -   -  16 18 mph 1017.3mb 84f 84f
10:50pm  -   -  16 20 mph 1017.2mb - 84f
10:30pm  -   -  16 18 mph 1017.2mb - 84f
10:20pm  -   -  16 18 mph 1017.2mb - 84f
10:10pm 3.5ft  -  16 20 mph 1017.2mb - 84f
10:00pm 3.5ft 6s 16 20 mph 1017.1mb 84f 84f
9:50pm  -   -  16 18 mph 1017mb - 84f
9:30pm  -   -  16 18 mph 1016.8mb - 84f
9:20pm  -   -  16 18 mph 1016.7mb - 84f
9:10pm 3.5ft  -  16 18 mph 1016.6mb - 84f
9:00pm 3.5ft 6s 18 20 mph 1016.5mb 84f 84f
8:50pm  -   -  18 20 mph 1016.4mb - 84f
8:30pm  -   -  16 18 mph 1016.3mb - 84f
8:20pm  -   -  16 18 mph 1016.1mb - 85f
8:10pm 3.5ft  -  16 18 mph 1016mb - 85f
8:00pm 3.5ft 6s 16 18 mph 1015.8mb 84f 84f
7:50pm  -   -  18 20 mph 1015.7mb - 84f
7:00pm 3.5ft 6s 16 18 mph 1015.1mb 84f 84f
6:50pm  -   -  16 20 mph 1015.1mb - 84f
6:00pm  -   -  18 20 mph 1014.6mb 84f 84f
5:50pm  -   -  16 20 mph 1014.5mb - 85f
5:30pm  -   -  16 20 mph 1014.4mb - 85f
5:20pm  -   -  16 20 mph 1014.4mb - 85f
5:10pm 3.5ft  -  16 18 mph 1014.4mb - 85f
5:00pm 3.5ft 6s 16 20 mph 1014.4mb 84f 85f
4:50pm  -   -  16 20 mph 1014.4mb - 85f
4:30pm  -   -  16 18 mph 1014.5mb - 85f
4:20pm  -   -  16 20 mph 1014.5mb - 85f
4:10pm  -   -  16 20 mph 1014.5mb - 85f
4:00pm  -   -  16 20 mph 1014.5mb 84f 84f
3:50pm  -   -  16 20 mph 1014.6mb - 84f
3:30pm  -   -  16 18 mph 1014.7mb - 84f
3:20pm  -   -  16 20 mph 1014.9mb - 84f
3:00pm  -   -  18 20 mph 1015.1mb 84f 84f
2:30pm  -   -  18 20 mph 1015.3mb - 84f
2:20pm  -   -  18 22 mph 1015.4mb - 84f
2:10pm 4.5ft  -  18 22 mph 1015.5mb - 84f
2:00pm 4.5ft 6s 18 20 mph 1015.7mb 84f 84f
1:50pm  -   -  16 20 mph 1015.7mb - 84f
1:30pm  -   -  18 20 mph 1015.8mb - 84f
1:20pm  -   -  18 22 mph 1015.9mb - 84f
1:10pm 4.5ft  -  18 22 mph 1015.9mb - 84f
1:00pm 4.5ft 5s 18 22 mph 1016mb 84f 84f
12:50pm  -   -  18 22 mph 1016mb - 84f
12:30pm  -   -  16 20 mph 1016.1mb - 83f
12:20pm  -   -  18 22 mph 1016.1mb - 83f
12:10pm 3.5ft  -  18 22 mph 1016.1mb - 83f
12:00pm 3.5ft 6s 20 22 mph 1016.1mb 83f 83f
11:50am  -   -  18 25 mph 1016.1mb - 83f
11:30am  -   -  16 20 mph 1016.1mb - 84f
11:20am  -   -  18 20 mph 1016.1mb - 83f
11:10am 3.5ft  -  18 20 mph 1016mb - 84f
11:00am 3.5ft 5s 18 22 mph 1016mb 83f 83f
10:50am  -   -  16 20 mph 1016.1mb - 83f
10:30am  -   -  16 20 mph 1015.9mb - 83f
10:20am  -   -  18 20 mph 1015.8mb - 83f
10:10am 4ft  -  18 22 mph 1015.7mb - 83f
10:00am 4ft 6s 18 22 mph 1015.6mb 83f 83f
9:50am  -   -  18 22 mph 1015.5mb - 83f
9:30am  -   -  20 22 mph 1015.4mb - 82f
9:20am  -   -  20 27 mph 1015.3mb - 83f
9:10am 3.5ft  -  18 20 mph 1015.2mb - 83f
9:00am 3.5ft 6s 18 22 mph 1015.2mb 83f 83f
8:50am  -   -  18 22 mph 1015.2mb - 83f
8:30am  -   -  18 22 mph 1015mb - 83f
8:20am  -   -  18 22 mph 1014.9mb - 83f
8:10am  -   -  16 20 mph 1014.9mb - 83f
8:00am  -   -  13 16 mph 1014.9mb 83f 82f
7:50am  -   -  16 22 mph 1014.8mb - 82f
7:30am  -   -  16 20 mph 1014.6mb - 83f
7:20am  -   -  13 16 mph 1014.6mb - 82f
7:00am  -   -  13 18 mph 1014.6mb 83f 83f
6:30am  -   -  18 22 mph 1014.2mb - 83f
6:20am  -   -  18 22 mph 1014.2mb - 83f
6:10am 3.5ft  -  18 20 mph 1014.1mb - 83f
6:00am 3.5ft 5s 16 22 mph 1013.9mb 83f 83f
5:50am  -   -  13 18 mph 1013.9mb - 83f